sensor_id;sensor_type;location;lat;lon;timestamp;P1;durP1;ratioP1;P2;durP2;ratioP2
21120;SDS011;12519;43.318;21.898;2023-04-03T00:01:27;22.0;;;18.0;;
21120;SDS011;12519;43.318;21.898;2023-04-03T00:06:04;21.0;;;17.0;;
21120;SDS011;12519;43.318;21.898;2023-04-03T00:10:41;21.0;;;17.0;;
21120;SDS011;12519;43.318;21.898;2023-04-03T00:15:19;19.0;;;16.0;;
21120;SDS011;12519;43.318;21.898;2023-04-03T00:19:56;19.0;;;16.0;;
21120;SDS011;12519;43.318;21.898;2023-04-03T00:24:32;19.0;;;16.0;;
21120;SDS011;12519;43.318;21.898;2023-04-03T00:29:09;17.0;;;16.0;;
21120;SDS011;12519;43.318;21.898;2023-04-03T00:33:46;17.0;;;16.0;;
21120;SDS011;12519;43.318;21.898;2023-04-03T00:38:22;16.0;;;14.0;;
21120;SDS011;12519;43.318;21.898;2023-04-03T00:42:59;16.0;;;14.0;;
21120;SDS011;12519;43.318;21.898;2023-04-03T00:47:54;14.0;;;13.0;;
21120;SDS011;12519;43.318;21.898;2023-04-03T00:52:40;14.0;;;13.0;;
21120;SDS011;12519;43.318;21.898;2023-04-03T00:57:17;16.0;;;14.0;;
21120;SDS011;12519;43.318;21.898;2023-04-03T01:01:56;16.0;;;14.0;;
21120;SDS011;12519;43.318;21.898;2023-04-03T01:06:36;18.0;;;16.0;;
21120;SDS011;12519;43.318;21.898;2023-04-03T01:11:13;18.0;;;16.0;;
21120;SDS011;12519;43.318;21.898;2023-04-03T01:15:49;16.0;;;15.0;;
21120;SDS011;12519;43.318;21.898;2023-04-03T01:21:38;16.0;;;15.0;;
21120;SDS011;12519;43.318;21.898;2023-04-03T01:26:58;15.0;;;14.0;;
21120;SDS011;12519;43.318;21.898;2023-04-03T01:31:44;15.0;;;14.0;;
21120;SDS011;12519;43.318;21.898;2023-04-03T01:36:30;16.0;;;14.0;;
21120;SDS011;12519;43.318;21.898;2023-04-03T01:41:08;16.0;;;14.0;;
21120;SDS011;12519;43.318;21.898;2023-04-03T01:45:46;18.0;;;14.0;;
21120;SDS011;12519;43.318;21.898;2023-04-03T01:50:23;18.0;;;14.0;;
21120;SDS011;12519;43.318;21.898;2023-04-03T01:55:00;15.0;;;13.0;;
21120;SDS011;12519;43.318;21.898;2023-04-03T01:59:37;15.0;;;13.0;;
21120;SDS011;12519;43.318;21.898;2023-04-03T02:04:13;15.0;;;13.0;;
21120;SDS011;12519;43.318;21.898;2023-04-03T02:08:51;12.0;;;12.0;;
21120;SDS011;12519;43.318;21.898;2023-04-03T02:13:27;12.0;;;12.0;;
21120;SDS011;12519;43.318;21.898;2023-04-03T02:18:05;13.0;;;12.0;;
21120;SDS011;12519;43.318;21.898;2023-04-03T02:22:44;13.0;;;12.0;;
21120;SDS011;12519;43.318;21.898;2023-04-03T02:27:23;14.0;;;13.0;;
21120;SDS011;12519;43.318;21.898;2023-04-03T02:32:00;14.0;;;13.0;;
21120;SDS011;12519;43.318;21.898;2023-04-03T02:36:37;14.0;;;12.0;;
21120;SDS011;12519;43.318;21.898;2023-04-03T02:41:14;14.0;;;12.0;;
21120;SDS011;12519;43.318;21.898;2023-04-03T02:45:50;15.0;;;10.0;;
21120;SDS011;12519;43.318;21.898;2023-04-03T02:50:26;15.0;;;10.0;;
21120;SDS011;12519;43.318;21.898;2023-04-03T02:55:03;15.0;;;12.0;;
21120;SDS011;12519;43.318;21.898;2023-04-03T02:59:42;15.0;;;12.0;;
21120;SDS011;12519;43.318;21.898;2023-04-03T03:04:19;15.0;;;12.0;;
21120;SDS011;12519;43.318;21.898;2023-04-03T03:08:56;15.0;;;13.0;;
21120;SDS011;12519;43.318;21.898;2023-04-03T03:13:34;15.0;;;13.0;;
21120;SDS011;12519;43.318;21.898;2023-04-03T03:18:12;14.0;;;12.0;;
21120;SDS011;12519;43.318;21.898;2023-04-03T03:22:50;14.0;;;12.0;;
21120;SDS011;12519;43.318;21.898;2023-04-03T03:27:26;12.0;;;11.0;;
21120;SDS011;12519;43.318;21.898;2023-04-03T03:32:04;12.0;;;11.0;;
21120;SDS011;12519;43.318;21.898;2023-04-03T03:36:41;14.0;;;12.0;;
21120;SDS011;12519;43.318;21.898;2023-04-03T03:41:17;14.0;;;12.0;;
21120;SDS011;12519;43.318;21.898;2023-04-03T03:45:54;16.0;;;12.0;;
21120;SDS011;12519;43.318;21.898;2023-04-03T03:50:31;16.0;;;12.0;;
21120;SDS011;12519;43.318;21.898;2023-04-03T03:55:08;14.0;;;12.0;;
21120;SDS011;12519;43.318;21.898;2023-04-03T03:59:44;14.0;;;12.0;;
21120;SDS011;12519;43.318;21.898;2023-04-03T04:04:21;14.0;;;12.0;;
21120;SDS011;12519;43.318;21.898;2023-04-03T04:08:57;13.0;;;11.0;;
21120;SDS011;12519;43.318;21.898;2023-04-03T04:13:34;13.0;;;11.0;;
21120;SDS011;12519;43.318;21.898;2023-04-03T04:18:11;12.0;;;10.0;;
21120;SDS011;12519;43.318;21.898;2023-04-03T04:22:48;12.0;;;10.0;;
21120;SDS011;12519;43.318;21.898;2023-04-03T04:27:25;11.0;;;9.0;;
21120;SDS011;12519;43.318;21.898;2023-04-03T04:32:02;11.0;;;9.0;;
21120;SDS011;12519;43.318;21.898;2023-04-03T04:36:40;12.0;;;10.0;;
21120;SDS011;12519;43.318;21.898;2023-04-03T04:41:18;12.0;;;10.0;;
21120;SDS011;12519;43.318;21.898;2023-04-03T04:46:01;12.0;;;11.0;;
21120;SDS011;12519;43.318;21.898;2023-04-03T04:50:46;12.0;;;11.0;;
21120;SDS011;12519;43.318;21.898;2023-04-03T04:55:22;24.0;;;20.0;;
21120;SDS011;12519;43.318;21.898;2023-04-03T04:59:59;24.0;;;20.0;;
21120;SDS011;12519;43.318;21.898;2023-04-03T05:04:36;24.0;;;20.0;;
21120;SDS011;12519;43.318;21.898;2023-04-03T05:09:13;36.0;;;28.0;;
21120;SDS011;12519;43.318;21.898;2023-04-03T05:13:50;36.0;;;28.0;;
21120;SDS011;12519;43.318;21.898;2023-04-03T05:18:26;32.0;;;25.0;;
21120;SDS011;12519;43.318;21.898;2023-04-03T05:23:03;32.0;;;25.0;;
21120;SDS011;12519;43.318;21.898;2023-04-03T05:27:39;27.0;;;22.0;;
21120;SDS011;12519;43.318;21.898;2023-04-03T05:32:16;27.0;;;22.0;;
21120;SDS011;12519;43.318;21.898;2023-04-03T05:36:52;24.0;;;20.0;;
21120;SDS011;12519;43.318;21.898;2023-04-03T05:41:29;24.0;;;20.0;;
21120;SDS011;12519;43.318;21.898;2023-04-03T05:46:08;20.0;;;17.0;;
21120;SDS011;12519;43.318;21.898;2023-04-03T05:50:55;20.0;;;17.0;;
21120;SDS011;12519;43.318;21.898;2023-04-03T05:55:33;46.0;;;33.0;;
21120;SDS011;12519;43.318;21.898;2023-04-03T06:00:12;46.0;;;33.0;;
21120;SDS011;12519;43.318;21.898;2023-04-03T06:04:54;46.0;;;33.0;;
21120;SDS011;12519;43.318;21.898;2023-04-03T06:09:31;71.0;;;49.0;;
21120;SDS011;12519;43.318;21.898;2023-04-03T06:14:09;71.0;;;49.0;;
21120;SDS011;12519;43.318;21.898;2023-04-03T06:18:48;45.0;;;34.0;;
21120;SDS011;12519;43.318;21.898;2023-04-03T06:23:25;45.0;;;34.0;;
21120;SDS011;12519;43.318;21.898;2023-04-03T06:28:01;19.0;;;18.0;;
21120;SDS011;12519;43.318;21.898;2023-04-03T06:32:38;19.0;;;18.0;;
21120;SDS011;12519;43.318;21.898;2023-04-03T06:37:14;20.0;;;18.0;;
21120;SDS011;12519;43.318;21.898;2023-04-03T06:41:56;20.0;;;18.0;;
21120;SDS011;12519;43.318;21.898;2023-04-03T06:46:32;20.0;;;18.0;;
21120;SDS011;12519;43.318;21.898;2023-04-03T06:51:11;20.0;;;18.0;;
21120;SDS011;12519;43.318;21.898;2023-04-03T06:55:57;22.0;;;18.0;;
21120;SDS011;12519;43.318;21.898;2023-04-03T07:00:34;22.0;;;18.0;;
21120;SDS011;12519;43.318;21.898;2023-04-03T07:05:11;22.0;;;18.0;;
21120;SDS011;12519;43.318;21.898;2023-04-03T07:09:48;24.0;;;18.0;;
21120;SDS011;12519;43.318;21.898;2023-04-03T07:14:25;24.0;;;18.0;;
21120;SDS011;12519;43.318;21.898;2023-04-03T07:19:02;22.0;;;18.0;;
21120;SDS011;12519;43.318;21.898;2023-04-03T07:23:39;22.0;;;18.0;;
21120;SDS011;12519;43.318;21.898;2023-04-03T07:28:17;19.0;;;17.0;;
21120;SDS011;12519;43.318;21.898;2023-04-03T07:32:59;19.0;;;17.0;;
21120;SDS011;12519;43.318;21.898;2023-04-03T07:37:36;18.0;;;16.0;;
21120;SDS011;12519;43.318;21.898;2023-04-03T07:42:13;18.0;;;16.0;;
21120;SDS011;12519;43.318;21.898;2023-04-03T07:46:50;17.0;;;16.0;;
21120;SDS011;12519;43.318;21.898;2023-04-03T07:51:27;17.0;;;16.0;;
21120;SDS011;12519;43.318;21.898;2023-04-03T07:56:04;21.0;;;18.0;;
21120;SDS011;12519;43.318;21.898;2023-04-03T08:00:44;21.0;;;18.0;;
21120;SDS011;12519;43.318;21.898;2023-04-03T08:05:23;21.0;;;18.0;;
21120;SDS011;12519;43.318;21.898;2023-04-03T08:10:00;25.0;;;19.0;;
21120;SDS011;12519;43.318;21.898;2023-04-03T08:14:37;25.0;;;19.0;;
21120;SDS011;12519;43.318;21.898;2023-04-03T08:19:14;25.0;;;20.0;;
21120;SDS011;12519;43.318;21.898;2023-04-03T08:23:53;25.0;;;20.0;;
21120;SDS011;12519;43.318;21.898;2023-04-03T08:28:30;25.0;;;22.0;;
21120;SDS011;12519;43.318;21.898;2023-04-03T08:33:07;25.0;;;22.0;;
21120;SDS011;12519;43.318;21.898;2023-04-03T08:37:46;26.0;;;20.0;;
21120;SDS011;12519;43.318;21.898;2023-04-03T08:42:30;26.0;;;20.0;;
21120;SDS011;12519;43.318;21.898;2023-04-03T08:48:22;27.0;;;19.0;;
21120;SDS011;12519;43.318;21.898;2023-04-03T08:53:19;27.0;;;19.0;;
21120;SDS011;12519;43.318;21.898;2023-04-03T08:58:15;24.0;;;18.0;;
21120;SDS011;12519;43.318;21.898;2023-04-03T09:03:00;24.0;;;18.0;;
21120;SDS011;12519;43.318;21.898;2023-04-03T09:07:38;21.0;;;18.0;;
21120;SDS011;12519;43.318;21.898;2023-04-03T09:12:25;21.0;;;18.0;;
21120;SDS011;12519;43.318;21.898;2023-04-03T09:17:15;21.0;;;18.0;;
21120;SDS011;12519;43.318;21.898;2023-04-03T09:22:21;21.0;;;18.0;;
21120;SDS011;12519;43.318;21.898;2023-04-03T09:27:04;21.0;;;19.0;;
21120;SDS011;12519;43.318;21.898;2023-04-03T09:31:46;21.0;;;19.0;;
21120;SDS011;12519;43.318;21.898;2023-04-03T09:36:39;21.0;;;18.0;;
21120;SDS011;12519;43.318;21.898;2023-04-03T09:41:20;21.0;;;18.0;;
21120;SDS011;12519;43.318;21.898;2023-04-03T09:46:15;21.0;;;18.0;;
21120;SDS011;12519;43.318;21.898;2023-04-03T09:51:08;21.0;;;18.0;;
21120;SDS011;12519;43.318;21.898;2023-04-03T09:55:51;24.0;;;20.0;;
21120;SDS011;12519;43.318;21.898;2023-04-03T10:00:30;24.0;;;20.0;;
21120;SDS011;12519;43.318;21.898;2023-04-03T10:05:33;26.0;;;21.0;;
21120;SDS011;12519;43.318;21.898;2023-04-03T10:10:18;26.0;;;21.0;;
21120;SDS011;12519;43.318;21.898;2023-04-03T10:14:59;22.0;;;19.0;;
21120;SDS011;12519;43.318;21.898;2023-04-03T10:19:48;22.0;;;19.0;;
21120;SDS011;12519;43.318;21.898;2023-04-03T10:25:10;19.0;;;17.0;;
21120;SDS011;12519;43.318;21.898;2023-04-03T10:30:20;19.0;;;17.0;;
21120;SDS011;12519;43.318;21.898;2023-04-03T10:35:37;22.0;;;20.0;;
21120;SDS011;12519;43.318;21.898;2023-04-03T10:40:54;22.0;;;20.0;;
21120;SDS011;12519;43.318;21.898;2023-04-03T10:45:59;25.0;;;22.0;;
21120;SDS011;12519;43.318;21.898;2023-04-03T10:50:47;25.0;;;22.0;;
21120;SDS011;12519;43.318;21.898;2023-04-03T10:55:55;29.0;;;23.0;;
21120;SDS011;12519;43.318;21.898;2023-04-03T11:00:57;29.0;;;23.0;;
21120;SDS011;12519;43.318;21.898;2023-04-03T11:05:59;33.0;;;24.0;;
21120;SDS011;12519;43.318;21.898;2023-04-03T11:10:55;33.0;;;24.0;;
21120;SDS011;12519;43.318;21.898;2023-04-03T11:15:56;34.0;;;23.0;;
21120;SDS011;12519;43.318;21.898;2023-04-03T11:20:38;34.0;;;23.0;;
21120;SDS011;12519;43.318;21.898;2023-04-03T11:25:54;34.0;;;22.0;;
21120;SDS011;12519;43.318;21.898;2023-04-03T11:30:59;34.0;;;22.0;;
21120;SDS011;12519;43.318;21.898;2023-04-03T11:37:01;31.0;;;22.0;;
21120;SDS011;12519;43.318;21.898;2023-04-03T11:42:15;28.0;;;22.0;;
21120;SDS011;12519;43.318;21.898;2023-04-03T11:47:43;28.0;;;22.0;;
21120;SDS011;12519;43.318;21.898;2023-04-03T11:53:01;24.0;;;20.0;;
21120;SDS011;12519;43.318;21.898;2023-04-03T11:58:13;24.0;;;20.0;;
21120;SDS011;12519;43.318;21.898;2023-04-03T12:02:53;19.0;;;18.0;;
21120;SDS011;12519;43.318;21.898;2023-04-03T12:07:29;19.0;;;18.0;;
21120;SDS011;12519;43.318;21.898;2023-04-03T12:12:24;19.0;;;18.0;;
21120;SDS011;12519;43.318;21.898;2023-04-03T12:17:16;22.0;;;18.0;;
21120;SDS011;12519;43.318;21.898;2023-04-03T12:22:04;22.0;;;18.0;;
21120;SDS011;12519;43.318;21.898;2023-04-03T12:27:02;24.0;;;19.0;;
21120;SDS011;12519;43.318;21.898;2023-04-03T12:32:12;24.0;;;19.0;;
21120;SDS011;12519;43.318;21.898;2023-04-03T12:38:04;24.0;;;20.0;;
21120;SDS011;12519;43.318;21.898;2023-04-03T12:44:21;23.0;;;20.0;;
21120;SDS011;12519;43.318;21.898;2023-04-03T12:49:45;23.0;;;20.0;;
21120;SDS011;12519;43.318;21.898;2023-04-03T12:54:30;22.0;;;18.0;;
21120;SDS011;12519;43.318;21.898;2023-04-03T12:59:16;22.0;;;18.0;;
21120;SDS011;12519;43.318;21.898;2023-04-03T13:04:02;22.0;;;16.0;;
21120;SDS011;12519;43.318;21.898;2023-04-03T13:08:47;22.0;;;16.0;;
21120;SDS011;12519;43.318;21.898;2023-04-03T13:13:28;21.0;;;17.0;;
21120;SDS011;12519;43.318;21.898;2023-04-03T13:18:05;21.0;;;17.0;;
21120;SDS011;12519;43.318;21.898;2023-04-03T13:22:58;20.0;;;18.0;;
21120;SDS011;12519;43.318;21.898;2023-04-03T13:27:42;20.0;;;18.0;;
21120;SDS011;12519;43.318;21.898;2023-04-03T13:32:21;20.0;;;18.0;;
21120;SDS011;12519;43.318;21.898;2023-04-03T13:37:11;22.0;;;18.0;;
21120;SDS011;12519;43.318;21.898;2023-04-03T13:42:14;22.0;;;18.0;;
21120;SDS011;12519;43.318;21.898;2023-04-03T13:47:16;23.0;;;17.0;;
21120;SDS011;12519;43.318;21.898;2023-04-03T13:51:59;23.0;;;17.0;;
21120;SDS011;12519;43.318;21.898;2023-04-03T13:57:15;25.0;;;18.0;;
21120;SDS011;12519;43.318;21.898;2023-04-03T14:01:54;25.0;;;18.0;;
21120;SDS011;12519;43.318;21.898;2023-04-03T14:07:05;27.0;;;20.0;;
21120;SDS011;12519;43.318;21.898;2023-04-03T14:11:42;27.0;;;20.0;;
21120;SDS011;12519;43.318;21.898;2023-04-03T14:16:25;28.0;;;21.0;;
21120;SDS011;12519;43.318;21.898;2023-04-03T14:21:20;28.0;;;21.0;;
21120;SDS011;12519;43.318;21.898;2023-04-03T14:25:58;28.0;;;22.0;;
21120;SDS011;12519;43.318;21.898;2023-04-03T14:30:35;28.0;;;22.0;;
21120;SDS011;12519;43.318;21.898;2023-04-03T14:35:11;28.0;;;22.0;;
21120;SDS011;12519;43.318;21.898;2023-04-03T14:39:50;28.0;;;22.0;;
21120;SDS011;12519;43.318;21.898;2023-04-03T14:44:29;29.0;;;22.0;;
21120;SDS011;12519;43.318;21.898;2023-04-03T14:49:08;29.0;;;22.0;;
21120;SDS011;12519;43.318;21.898;2023-04-03T14:53:56;28.0;;;22.0;;
21120;SDS011;12519;43.318;21.898;2023-04-03T14:58:32;28.0;;;22.0;;
21120;SDS011;12519;43.318;21.898;2023-04-03T15:03:12;27.0;;;21.0;;
21120;SDS011;12519;43.318;21.898;2023-04-03T15:07:57;27.0;;;21.0;;
21120;SDS011;12519;43.318;21.898;2023-04-03T15:12:35;36.0;;;26.0;;
21120;SDS011;12519;43.318;21.898;2023-04-03T15:17:13;36.0;;;26.0;;
21120;SDS011;12519;43.318;21.898;2023-04-03T15:21:59;36.0;;;26.0;;
21120;SDS011;12519;43.318;21.898;2023-04-03T15:26:36;44.0;;;30.0;;
21120;SDS011;12519;43.318;21.898;2023-04-03T15:31:14;44.0;;;30.0;;
21120;SDS011;12519;43.318;21.898;2023-04-03T15:35:51;34.0;;;24.0;;
21120;SDS011;12519;43.318;21.898;2023-04-03T15:40:28;34.0;;;24.0;;
21120;SDS011;12519;43.318;21.898;2023-04-03T15:45:05;24.0;;;18.0;;
21120;SDS011;12519;43.318;21.898;2023-04-03T15:49:45;24.0;;;18.0;;
21120;SDS011;12519;43.318;21.898;2023-04-03T15:54:22;21.0;;;16.0;;
21120;SDS011;12519;43.318;21.898;2023-04-03T15:58:59;21.0;;;16.0;;
21120;SDS011;12519;43.318;21.898;2023-04-03T16:03:35;18.0;;;15.0;;
21120;SDS011;12519;43.318;21.898;2023-04-03T16:08:11;18.0;;;15.0;;
21120;SDS011;12519;43.318;21.898;2023-04-03T16:12:49;20.0;;;16.0;;
21120;SDS011;12519;43.318;21.898;2023-04-03T16:17:26;20.0;;;16.0;;
21120;SDS011;12519;43.318;21.898;2023-04-03T16:22:04;20.0;;;16.0;;
21120;SDS011;12519;43.318;21.898;2023-04-03T16:26:41;21.0;;;16.0;;
21120;SDS011;12519;43.318;21.898;2023-04-03T16:31:18;21.0;;;16.0;;
21120;SDS011;12519;43.318;21.898;2023-04-03T16:36:01;21.0;;;18.0;;
21120;SDS011;12519;43.318;21.898;2023-04-03T16:40:42;21.0;;;18.0;;
21120;SDS011;12519;43.318;21.898;2023-04-03T16:45:19;21.0;;;19.0;;
21120;SDS011;12519;43.318;21.898;2023-04-03T16:49:57;21.0;;;19.0;;
21120;SDS011;12519;43.318;21.898;2023-04-03T16:54:34;20.0;;;18.0;;
21120;SDS011;12519;43.318;21.898;2023-04-03T16:59:11;20.0;;;18.0;;
21120;SDS011;12519;43.318;21.898;2023-04-03T17:03:48;19.0;;;17.0;;
21120;SDS011;12519;43.318;21.898;2023-04-03T17:08:24;19.0;;;17.0;;
21120;SDS011;12519;43.318;21.898;2023-04-03T17:13:00;17.0;;;16.0;;
21120;SDS011;12519;43.318;21.898;2023-04-03T17:17:37;17.0;;;16.0;;
21120;SDS011;12519;43.318;21.898;2023-04-03T17:22:13;17.0;;;16.0;;
21120;SDS011;12519;43.318;21.898;2023-04-03T17:26:49;15.0;;;14.0;;
21120;SDS011;12519;43.318;21.898;2023-04-03T17:31:25;15.0;;;14.0;;
21120;SDS011;12519;43.318;21.898;2023-04-03T17:36:02;15.0;;;14.0;;
21120;SDS011;12519;43.318;21.898;2023-04-03T17:40:42;15.0;;;14.0;;
21120;SDS011;12519;43.318;21.898;2023-04-03T17:45:19;15.0;;;15.0;;
21120;SDS011;12519;43.318;21.898;2023-04-03T17:49:56;15.0;;;15.0;;
21120;SDS011;12519;43.318;21.898;2023-04-03T17:54:33;20.0;;;18.0;;
21120;SDS011;12519;43.318;21.898;2023-04-03T17:59:10;20.0;;;18.0;;
21120;SDS011;12519;43.318;21.898;2023-04-03T18:03:48;26.0;;;22.0;;
21120;SDS011;12519;43.318;21.898;2023-04-03T18:08:36;26.0;;;22.0;;
21120;SDS011;12519;43.318;21.898;2023-04-03T18:13:30;22.0;;;19.0;;
21120;SDS011;12519;43.318;21.898;2023-04-03T18:18:09;22.0;;;19.0;;
21120;SDS011;12519;43.318;21.898;2023-04-03T18:22:46;22.0;;;19.0;;
21120;SDS011;12519;43.318;21.898;2023-04-03T18:27:25;17.0;;;16.0;;
21120;SDS011;12519;43.318;21.898;2023-04-03T18:32:04;17.0;;;16.0;;
21120;SDS011;12519;43.318;21.898;2023-04-03T18:36:54;16.0;;;14.0;;
21120;SDS011;12519;43.318;21.898;2023-04-03T18:41:31;16.0;;;14.0;;
21120;SDS011;12519;43.318;21.898;2023-04-03T18:46:13;14.0;;;13.0;;
21120;SDS011;12519;43.318;21.898;2023-04-03T18:50:50;14.0;;;13.0;;
21120;SDS011;12519;43.318;21.898;2023-04-03T18:55:28;14.0;;;12.0;;
21120;SDS011;12519;43.318;21.898;2023-04-03T19:00:05;14.0;;;12.0;;
21120;SDS011;12519;43.318;21.898;2023-04-03T19:04:47;13.0;;;12.0;;
21120;SDS011;12519;43.318;21.898;2023-04-03T19:09:26;13.0;;;12.0;;
21120;SDS011;12519;43.318;21.898;2023-04-03T19:14:03;12.0;;;12.0;;
21120;SDS011;12519;43.318;21.898;2023-04-03T19:18:41;12.0;;;12.0;;
21120;SDS011;12519;43.318;21.898;2023-04-03T19:23:18;12.0;;;11.0;;
21120;SDS011;12519;43.318;21.898;2023-04-03T19:27:54;12.0;;;11.0;;
21120;SDS011;12519;43.318;21.898;2023-04-03T19:32:31;12.0;;;11.0;;
21120;SDS011;12519;43.318;21.898;2023-04-03T19:37:07;11.0;;;10.0;;
21120;SDS011;12519;43.318;21.898;2023-04-03T19:41:44;11.0;;;10.0;;
21120;SDS011;12519;43.318;21.898;2023-04-03T19:46:21;10.0;;;10.0;;
21120;SDS011;12519;43.318;21.898;2023-04-03T19:51:03;10.0;;;10.0;;
21120;SDS011;12519;43.318;21.898;2023-04-03T19:55:40;16.0;;;12.0;;
21120;SDS011;12519;43.318;21.898;2023-04-03T20:00:16;16.0;;;12.0;;
21120;SDS011;12519;43.318;21.898;2023-04-03T20:04:54;22.0;;;15.0;;
21120;SDS011;12519;43.318;21.898;2023-04-03T20:09:31;22.0;;;15.0;;
21120;SDS011;12519;43.318;21.898;2023-04-03T20:14:07;16.0;;;12.0;;
21120;SDS011;12519;43.318;21.898;2023-04-03T20:18:43;16.0;;;12.0;;
21120;SDS011;12519;43.318;21.898;2023-04-03T20:23:19;11.0;;;9.0;;
21120;SDS011;12519;43.318;21.898;2023-04-03T20:27:58;11.0;;;9.0;;
21120;SDS011;12519;43.318;21.898;2023-04-03T20:32:35;11.0;;;9.0;;
21120;SDS011;12519;43.318;21.898;2023-04-03T20:37:12;10.0;;;8.0;;
21120;SDS011;12519;43.318;21.898;2023-04-03T20:41:49;10.0;;;8.0;;
21120;SDS011;12519;43.318;21.898;2023-04-03T20:46:26;8.0;;;7.0;;
21120;SDS011;12519;43.318;21.898;2023-04-03T20:51:10;8.0;;;7.0;;
21120;SDS011;12519;43.318;21.898;2023-04-03T20:55:55;10.0;;;8.0;;
21120;SDS011;12519;43.318;21.898;2023-04-03T21:00:36;10.0;;;8.0;;
21120;SDS011;12519;43.318;21.898;2023-04-03T21:05:12;12.0;;;10.0;;
21120;SDS011;12519;43.318;21.898;2023-04-03T21:21:01;10.0;;;8.0;;
21120;SDS011;12519;43.318;21.898;2023-04-03T21:25:40;8.0;;;6.0;;
21120;SDS011;12519;43.318;21.898;2023-04-03T21:30:17;8.0;;;6.0;;
21120;SDS011;12519;43.318;21.898;2023-04-03T21:34:54;8.0;;;6.0;;
21120;SDS011;12519;43.318;21.898;2023-04-03T21:39:30;8.0;;;6.0;;
21120;SDS011;12519;43.318;21.898;2023-04-03T21:44:09;7.0;;;6.0;;
21120;SDS011;12519;43.318;21.898;2023-04-03T21:48:46;7.0;;;6.0;;
21120;SDS011;12519;43.318;21.898;2023-04-03T21:53:23;7.0;;;6.0;;
21120;SDS011;12519;43.318;21.898;2023-04-03T21:58:00;6.0;;;6.0;;
21120;SDS011;12519;43.318;21.898;2023-04-03T22:02:38;6.0;;;6.0;;
21120;SDS011;12519;43.318;21.898;2023-04-03T22:07:15;6.0;;;5.0;;
21120;SDS011;12519;43.318;21.898;2023-04-03T22:11:52;6.0;;;5.0;;
21120;SDS011;12519;43.318;21.898;2023-04-03T22:16:28;6.0;;;5.0;;
21120;SDS011;12519;43.318;21.898;2023-04-03T22:21:05;6.0;;;5.0;;
21120;SDS011;12519;43.318;21.898;2023-04-03T22:25:42;5.0;;;5.0;;
21120;SDS011;12519;43.318;21.898;2023-04-03T22:30:30;5.0;;;5.0;;
21120;SDS011;12519;43.318;21.898;2023-04-03T22:35:07;4.0;;;4.0;;
21120;SDS011;12519;43.318;21.898;2023-04-03T22:39:44;4.0;;;4.0;;
21120;SDS011;12519;43.318;21.898;2023-04-03T22:44:20;4.0;;;4.0;;
21120;SDS011;12519;43.318;21.898;2023-04-03T22:48:57;4.0;;;4.0;;
21120;SDS011;12519;43.318;21.898;2023-04-03T22:53:33;4.0;;;4.0;;
21120;SDS011;12519;43.318;21.898;2023-04-03T22:58:11;4.0;;;4.0;;
21120;SDS011;12519;43.318;21.898;2023-04-03T23:02:48;4.0;;;4.0;;
21120;SDS011;12519;43.318;21.898;2023-04-03T23:07:24;4.0;;;3.0;;
21120;SDS011;12519;43.318;21.898;2023-04-03T23:12:01;4.0;;;3.0;;
21120;SDS011;12519;43.318;21.898;2023-04-03T23:16:38;4.0;;;3.0;;
21120;SDS011;12519;43.318;21.898;2023-04-03T23:21:15;4.0;;;3.0;;
21120;SDS011;12519;43.318;21.898;2023-04-03T23:25:52;3.0;;;3.0;;
21120;SDS011;12519;43.318;21.898;2023-04-03T23:30:36;3.0;;;3.0;;
21120;SDS011;12519;43.318;21.898;2023-04-03T23:35:13;2.0;;;2.0;;
21120;SDS011;12519;43.318;21.898;2023-04-03T23:39:51;2.0;;;2.0;;
21120;SDS011;12519;43.318;21.898;2023-04-03T23:44:28;2.0;;;2.0;;
21120;SDS011;12519;43.318;21.898;2023-04-03T23:49:05;2.0;;;2.0;;
21120;SDS011;12519;43.318;21.898;2023-04-03T23:53:42;2.0;;;2.0;;
21120;SDS011;12519;43.318;21.898;2023-04-03T23:58:18;2.0;;;2.0;;
